Sierra Blanca Regional Airport
KSRR : now visible

Airfield :











YOU CAN JOIN US ON...

 
LOGIN :

Register | Disclaimer

   EN    FR    IT 

 









Legend :    VFR   Marginal VFR   IFR   Intensive IFR   Very Intensive IFR
Visi :
Ceiling :
>= 8 km
>= 3000ft
5 to 8 km
1000 to 3000 ft
1500m to 5 km
500 to 1000 ft
800 to 1500m
200 to 500 ft
< 800m
< 200 ft
Symbols :   Thunderstorms  Fog  Heavy snow  Heavy precipitations  Wind > 20 kt






- Airport Elevation : 6814 ft


KSRR - Sierra Blanca Regional

CURRENT METAR :
  • 250515Z AUTO 00000KT 10SM FEW110 17/15 A3026 RMK AO2

EXPIRED METARs :
  • 250455Z AUTO 02004KT 10SM CLR 18/14 A3026 RMK AO2
  • 250435Z AUTO 00000KT 10SM CLR 18/14 A3026 RMK AO2
  • 250415Z AUTO 23004KT 10SM CLR 18/14 A3026 RMK AO2
  • 250355Z AUTO 26007KT 10SM CLR 19/13 A3026 RMK AO2
  • 250335Z AUTO 26009KT 10SM CLR 19/13 A3025 RMK AO2
  • 250315Z AUTO 26008KT 10SM CLR 18/14 A3025 RMK AO2
  • 250255Z AUTO 27010KT 10SM CLR 17/15 A3025 RMK AO2
  • 250235Z AUTO 28007KT 10SM CLR 17/15 A3026 RMK AO2
  • 250215Z AUTO 36004KT 10SM SCT100 18/14 A3026 RMK AO2
  • 250155Z AUTO 33005KT 10SM BKN100 18/14 A3026 RMK AO2 P0006
  • 250135Z AUTO 03003KT 10SM FEW030 SCT037 OVC090 18/14 A3026 RMK AO2 P0006
  • 250115Z AUTO 00000KT 3SM RA BKN035 BKN044 OVC065 17/15 A3028 RMK AO2 P0005
  • 250055Z AUTO 00000KT 6SM -RA FEW003 SCT035 BKN070 17/14 A3028 RMK AO2 P0049
  • 250035Z AUTO 04018G31KT 1/4SM +RA OVC003 18/14 A3023 RMK AO2 P0046

TAF N/A
KZAB FIR / North America



MET'MAP, your aeronautical weather chart ! - Copyright ORBIFLY December 2007 - Disclaimer

ORBIFLY MET'MAP TEAM :

Programming & Development : Alexandra Zaïnal
Original concept : Baudouin d'Aumeries
Technical & hardware support : Manuel Goepfert
Assistance : Marc-Olivier Méhu




SOURCES & CREDITS :

   NOAA       Earth
Advisory